Harbor Springs, Michigan
Current Conditions -  °F | °C
As of 12:34 AM on Friday 31 Oct 2014 (Local Time) from KMGN Reporting Station
Light Rain Light Rain  
Wind Chill: 40°   Ceiling: 4200
Heat Index: 40°   Visibility: 10mi
Dew Point: 38°   Wind: 3mph
Humidity: 91%   Direction: 290°WNW
Pressure: 29.91"   Gusts: NA
Location:  45.43°N, 84.99°W
Report Text: KMGN 310434Z AUTO 29003KT 10SM -RA SCT027 OVC042 04/03 A2991 RMK AO2 T00450032
Loading
Personal Weather Stations






























Interactive Weather Map
Tropical Storm Tracking
New forecast layout! Learn more

10-Day Weather Forecast

Advertisements
Track Severe Weather on mobile